Terminal Aerodrome Forecast
Issued by NWS

Home | Current Version | Previous Version | Text Only | Print | Product List | Glossary On
Versions: 1 2 3 4 5 6 7 8 9 10 11 12 13
882
FTPA31 PHFO 091740
TAFHMK
TAF
PHMK 091740Z 0918/1018 16007KT P6SM -RA SCT015 BKN025 OVC050
      TEMPO 0918/0921 5SM RA BR BKN015
     FM092200 16009KT P6SM VCSH SCT020 BKN040
     FM100500 VRB05KT P6SM VCSH SCT025 BKN045=

USA.gov is the U.S. government's official web portal to all federal, state and local government web resources and services.